sensor_id;sensor_type;location;lat;lon;timestamp;pressure;altitude;pressure_sealevel;temperature;humidity
33554;BME280;19885;42.208;24.952;2023-07-13T00:00:37;99867.25;;;25.91;83.47
33554;BME280;19885;42.208;24.952;2023-07-13T00:03:02;99877.50;;;25.99;83.44
33554;BME280;19885;42.208;24.952;2023-07-13T00:05:28;99875.88;;;25.96;83.65
33554;BME280;19885;42.208;24.952;2023-07-13T00:07:53;99873.13;;;25.98;83.91
33554;BME280;19885;42.208;24.952;2023-07-13T00:10:19;99869.44;;;26.16;83.16
33554;BME280;19885;42.208;24.952;2023-07-13T00:12:45;99870.56;;;26.12;83.33
33554;BME280;19885;42.208;24.952;2023-07-13T00:15:21;99869.59;;;26.13;83.42
33554;BME280;19885;42.208;24.952;2023-07-13T00:17:48;99871.59;;;26.25;83.10
33554;BME280;19885;42.208;24.952;2023-07-13T00:20:13;99863.72;;;26.22;83.32
33554;BME280;19885;42.208;24.952;2023-07-13T00:22:39;99861.75;;;26.26;82.76
33554;BME280;19885;42.208;24.952;2023-07-13T00:25:10;99864.97;;;26.16;83.03
33554;BME280;19885;42.208;24.952;2023-07-13T00:27:38;99862.56;;;26.12;83.33
33554;BME280;19885;42.208;24.952;2023-07-13T00:30:04;99863.13;;;26.17;83.34
33554;BME280;19885;42.208;24.952;2023-07-13T00:32:30;99861.25;;;26.19;83.06
33554;BME280;19885;42.208;24.952;2023-07-13T00:34:55;99855.56;;;26.25;82.66
33554;BME280;19885;42.208;24.952;2023-07-13T00:37:22;99860.38;;;26.18;83.07
33554;BME280;19885;42.208;24.952;2023-07-13T00:39:47;99849.84;;;26.31;82.59
33554;BME280;19885;42.208;24.952;2023-07-13T00:42:13;99851.38;;;26.35;82.67
33554;BME280;19885;42.208;24.952;2023-07-13T00:44:39;99853.50;;;26.44;82.27
33554;BME280;19885;42.208;24.952;2023-07-13T00:47:05;99854.16;;;26.34;82.78
33554;BME280;19885;42.208;24.952;2023-07-13T00:49:31;99848.25;;;26.43;82.54
33554;BME280;19885;42.208;24.952;2023-07-13T00:51:59;99853.25;;;26.49;81.80
33554;BME280;19885;42.208;24.952;2023-07-13T00:54:28;99854.38;;;26.45;82.03
33554;BME280;19885;42.208;24.952;2023-07-13T00:56:59;99854.47;;;26.43;82.07
33554;BME280;19885;42.208;24.952;2023-07-13T00:59:25;99850.97;;;26.27;82.69
33554;BME280;19885;42.208;24.952;2023-07-13T01:01:51;99850.19;;;25.94;83.49
33554;BME280;19885;42.208;24.952;2023-07-13T01:04:17;99846.56;;;25.95;83.25
33554;BME280;19885;42.208;24.952;2023-07-13T01:06:43;99851.13;;;25.93;83.07
33554;BME280;19885;42.208;24.952;2023-07-13T01:09:11;99848.09;;;25.83;82.64
33554;BME280;19885;42.208;24.952;2023-07-13T01:11:37;99854.94;;;25.89;82.37
33554;BME280;19885;42.208;24.952;2023-07-13T01:14:03;99839.53;;;25.78;82.93
33554;BME280;19885;42.208;24.952;2023-07-13T01:16:31;99842.59;;;25.86;82.91
33554;BME280;19885;42.208;24.952;2023-07-13T01:18:57;99842.50;;;25.88;82.51
33554;BME280;19885;42.208;24.952;2023-07-13T01:21:27;99847.09;;;25.86;82.35
33554;BME280;19885;42.208;24.952;2023-07-13T01:23:52;99841.94;;;25.83;82.27
33554;BME280;19885;42.208;24.952;2023-07-13T01:26:18;99846.66;;;25.93;82.47
33554;BME280;19885;42.208;24.952;2023-07-13T01:28:43;99851.75;;;25.98;83.68
33554;BME280;19885;42.208;24.952;2023-07-13T01:31:09;99848.72;;;26.04;83.42
33554;BME280;19885;42.208;24.952;2023-07-13T01:33:36;99850.25;;;26.08;82.37
33554;BME280;19885;42.208;24.952;2023-07-13T01:36:01;99853.44;;;25.99;82.85
33554;BME280;19885;42.208;24.952;2023-07-13T01:38:27;99854.00;;;26.05;82.71
33554;BME280;19885;42.208;24.952;2023-07-13T01:40:52;99858.47;;;26.05;82.65
33554;BME280;19885;42.208;24.952;2023-07-13T01:43:18;99863.47;;;26.11;81.90
33554;BME280;19885;42.208;24.952;2023-07-13T01:45:44;99858.16;;;26.11;81.84
33554;BME280;19885;42.208;24.952;2023-07-13T01:48:10;99858.13;;;25.95;82.36
33554;BME280;19885;42.208;24.952;2023-07-13T01:50:35;99857.00;;;25.84;84.69
33554;BME280;19885;42.208;24.952;2023-07-13T01:53:00;99859.81;;;25.81;84.33
33554;BME280;19885;42.208;24.952;2023-07-13T01:55:27;99860.78;;;25.80;84.31
33554;BME280;19885;42.208;24.952;2023-07-13T01:57:52;99858.13;;;25.80;84.60
33554;BME280;19885;42.208;24.952;2023-07-13T02:00:18;99862.41;;;25.67;85.36
33554;BME280;19885;42.208;24.952;2023-07-13T02:02:46;99861.56;;;25.66;87.00
33554;BME280;19885;42.208;24.952;2023-07-13T02:05:11;99855.00;;;25.72;85.99
33554;BME280;19885;42.208;24.952;2023-07-13T02:07:37;99859.28;;;25.59;87.46
33554;BME280;19885;42.208;24.952;2023-07-13T02:10:02;99861.34;;;25.54;88.25
33554;BME280;19885;42.208;24.952;2023-07-13T02:12:28;99860.75;;;25.48;88.66
33554;BME280;19885;42.208;24.952;2023-07-13T02:14:53;99865.13;;;25.49;88.08
33554;BME280;19885;42.208;24.952;2023-07-13T02:17:18;99868.03;;;25.45;88.53
33554;BME280;19885;42.208;24.952;2023-07-13T02:19:44;99871.09;;;25.37;88.08
33554;BME280;19885;42.208;24.952;2023-07-13T02:22:09;99869.38;;;25.36;89.03
33554;BME280;19885;42.208;24.952;2023-07-13T02:24:34;99875.34;;;25.41;89.38
33554;BME280;19885;42.208;24.952;2023-07-13T02:27:00;99874.72;;;25.36;88.45
33554;BME280;19885;42.208;24.952;2023-07-13T02:29:25;99874.25;;;25.28;88.18
33554;BME280;19885;42.208;24.952;2023-07-13T02:31:50;99873.66;;;25.23;88.70
33554;BME280;19885;42.208;24.952;2023-07-13T02:34:15;99878.69;;;25.12;89.29
33554;BME280;19885;42.208;24.952;2023-07-13T02:36:41;99881.50;;;25.09;89.54
33554;BME280;19885;42.208;24.952;2023-07-13T02:39:06;99877.88;;;25.10;89.72
33554;BME280;19885;42.208;24.952;2023-07-13T02:41:32;99882.94;;;25.16;88.93
33554;BME280;19885;42.208;24.952;2023-07-13T02:43:58;99881.44;;;24.94;90.09
33554;BME280;19885;42.208;24.952;2023-07-13T02:46:28;99876.41;;;24.88;89.71
33554;BME280;19885;42.208;24.952;2023-07-13T02:48:53;99877.94;;;24.76;91.09
33554;BME280;19885;42.208;24.952;2023-07-13T02:51:19;99873.63;;;24.72;91.39
33554;BME280;19885;42.208;24.952;2023-07-13T02:53:44;99883.28;;;24.74;91.32
33554;BME280;19885;42.208;24.952;2023-07-13T02:56:09;99877.56;;;24.65;91.77
33554;BME280;19885;42.208;24.952;2023-07-13T02:58:36;99874.25;;;24.43;92.75
33554;BME280;19885;42.208;24.952;2023-07-13T03:01:06;99878.78;;;24.41;93.12
33554;BME280;19885;42.208;24.952;2023-07-13T03:03:32;99878.00;;;24.39;93.71
33554;BME280;19885;42.208;24.952;2023-07-13T03:06:00;99884.75;;;24.46;94.20
33554;BME280;19885;42.208;24.952;2023-07-13T03:08:27;99888.69;;;24.56;93.62
33554;BME280;19885;42.208;24.952;2023-07-13T03:11:02;99882.88;;;24.65;94.41
33554;BME280;19885;42.208;24.952;2023-07-13T03:13:28;99894.78;;;24.76;93.81
33554;BME280;19885;42.208;24.952;2023-07-13T03:15:56;99889.38;;;24.78;94.18
33554;BME280;19885;42.208;24.952;2023-07-13T03:18:22;99882.75;;;24.68;94.39
33554;BME280;19885;42.208;24.952;2023-07-13T03:20:49;99887.28;;;24.66;94.91
33554;BME280;19885;42.208;24.952;2023-07-13T03:23:15;99888.72;;;24.73;96.33
33554;BME280;19885;42.208;24.952;2023-07-13T03:25:40;99888.59;;;24.76;95.47
33554;BME280;19885;42.208;24.952;2023-07-13T03:28:05;99891.28;;;24.74;94.65
33554;BME280;19885;42.208;24.952;2023-07-13T03:30:31;99892.50;;;24.86;95.31
33554;BME280;19885;42.208;24.952;2023-07-13T03:32:56;99895.91;;;24.90;95.00
33554;BME280;19885;42.208;24.952;2023-07-13T03:35:22;99896.13;;;24.85;94.81
33554;BME280;19885;42.208;24.952;2023-07-13T03:37:47;99892.59;;;24.85;94.29
33554;BME280;19885;42.208;24.952;2023-07-13T03:40:13;99896.03;;;24.87;95.11
33554;BME280;19885;42.208;24.952;2023-07-13T03:42:38;99886.06;;;24.90;95.58
33554;BME280;19885;42.208;24.952;2023-07-13T03:45:04;99890.91;;;24.99;93.70
33554;BME280;19885;42.208;24.952;2023-07-13T03:47:29;99890.78;;;25.02;93.43
33554;BME280;19885;42.208;24.952;2023-07-13T03:49:56;99886.94;;;25.08;93.68
33554;BME280;19885;42.208;24.952;2023-07-13T03:52:21;99894.53;;;25.15;92.33
33554;BME280;19885;42.208;24.952;2023-07-13T03:54:47;99881.56;;;25.25;92.53
33554;BME280;19885;42.208;24.952;2023-07-13T03:57:12;99888.66;;;25.26;91.59
33554;BME280;19885;42.208;24.952;2023-07-13T03:59:38;99893.97;;;25.26;93.38
33554;BME280;19885;42.208;24.952;2023-07-13T04:02:03;99896.72;;;25.24;92.84
33554;BME280;19885;42.208;24.952;2023-07-13T04:04:30;99896.41;;;25.30;92.51
33554;BME280;19885;42.208;24.952;2023-07-13T04:06:56;99899.66;;;25.35;92.13
33554;BME280;19885;42.208;24.952;2023-07-13T04:09:23;99890.63;;;25.38;92.34
33554;BME280;19885;42.208;24.952;2023-07-13T04:11:48;99900.28;;;25.40;93.82
33554;BME280;19885;42.208;24.952;2023-07-13T04:14:14;99899.16;;;25.46;94.33
33554;BME280;19885;42.208;24.952;2023-07-13T04:16:39;99904.25;;;25.51;94.58
33554;BME280;19885;42.208;24.952;2023-07-13T04:19:07;99903.22;;;25.53;94.08
33554;BME280;19885;42.208;24.952;2023-07-13T04:21:35;99908.22;;;25.59;94.10
33554;BME280;19885;42.208;24.952;2023-07-13T05:45:17;99917.88;;;26.26;88.66
33554;BME280;19885;42.208;24.952;2023-07-13T05:47:44;99924.34;;;26.37;86.00
33554;BME280;19885;42.208;24.952;2023-07-13T05:50:09;99922.88;;;26.16;88.10
33554;BME280;19885;42.208;24.952;2023-07-13T05:52:35;99926.19;;;25.88;85.58
33554;BME280;19885;42.208;24.952;2023-07-13T05:55:00;99919.69;;;26.09;86.72
33554;BME280;19885;42.208;24.952;2023-07-13T05:57:25;99925.03;;;26.41;87.44
33554;BME280;19885;42.208;24.952;2023-07-13T05:59:50;99921.53;;;26.70;90.30
33554;BME280;19885;42.208;24.952;2023-07-13T06:02:16;99919.97;;;26.81;81.79
33554;BME280;19885;42.208;24.952;2023-07-13T06:04:41;99922.88;;;26.93;84.12
33554;BME280;19885;42.208;24.952;2023-07-13T06:07:06;99920.75;;;26.83;87.19
33554;BME280;19885;42.208;24.952;2023-07-13T06:09:32;99928.44;;;26.58;84.09
33554;BME280;19885;42.208;24.952;2023-07-13T06:11:57;99921.72;;;26.82;85.83
33554;BME280;19885;42.208;24.952;2023-07-13T06:14:22;99933.53;;;26.94;86.75
33554;BME280;19885;42.208;24.952;2023-07-13T06:16:48;99932.97;;;27.17;82.42
33554;BME280;19885;42.208;24.952;2023-07-13T06:19:13;99936.41;;;27.49;83.35
33554;BME280;19885;42.208;24.952;2023-07-13T06:21:38;99933.94;;;27.60;78.30
33554;BME280;19885;42.208;24.952;2023-07-13T06:24:03;99926.28;;;27.68;79.43
33554;BME280;19885;42.208;24.952;2023-07-13T06:26:29;99925.97;;;27.44;77.04
33554;BME280;19885;42.208;24.952;2023-07-13T06:28:54;99917.22;;;27.27;83.02
33554;BME280;19885;42.208;24.952;2023-07-13T06:31:20;99916.44;;;27.11;76.96
33554;BME280;19885;42.208;24.952;2023-07-13T06:33:45;99919.69;;;27.16;76.75
33554;BME280;19885;42.208;24.952;2023-07-13T06:36:10;99911.03;;;26.82;79.13
33554;BME280;19885;42.208;24.952;2023-07-13T06:38:36;99911.78;;;26.84;78.81
33554;BME280;19885;42.208;24.952;2023-07-13T06:41:01;99904.81;;;27.26;79.04
33554;BME280;19885;42.208;24.952;2023-07-13T06:43:27;99904.19;;;27.50;83.20
33554;BME280;19885;42.208;24.952;2023-07-13T06:45:54;99906.78;;;27.52;81.85
33554;BME280;19885;42.208;24.952;2023-07-13T06:48:20;99900.63;;;27.78;77.00
33554;BME280;19885;42.208;24.952;2023-07-13T06:50:46;99895.66;;;27.86;74.35
33554;BME280;19885;42.208;24.952;2023-07-13T06:53:11;99906.28;;;28.16;71.95
33554;BME280;19885;42.208;24.952;2023-07-13T06:55:37;99908.00;;;27.75;73.97
33554;BME280;19885;42.208;24.952;2023-07-13T06:58:04;99904.84;;;27.54;75.49
33554;BME280;19885;42.208;24.952;2023-07-13T07:00:29;99906.03;;;27.64;72.09
33554;BME280;19885;42.208;24.952;2023-07-13T07:02:55;99905.69;;;27.83;73.58
33554;BME280;19885;42.208;24.952;2023-07-13T07:05:20;99906.38;;;27.58;76.93
33554;BME280;19885;42.208;24.952;2023-07-13T07:07:47;99908.00;;;27.75;74.28
33554;BME280;19885;42.208;24.952;2023-07-13T07:18:33;99908.59;;;27.94;74.99
33554;BME280;19885;42.208;24.952;2023-07-13T07:20:58;99905.22;;;28.18;75.02
33554;BME280;19885;42.208;24.952;2023-07-13T07:23:24;99905.78;;;28.23;72.73
33554;BME280;19885;42.208;24.952;2023-07-13T07:25:49;99909.88;;;28.29;75.37
33554;BME280;19885;42.208;24.952;2023-07-13T07:28:15;99908.09;;;28.42;74.22
33554;BME280;19885;42.208;24.952;2023-07-13T07:30:43;99907.25;;;28.42;69.90
33554;BME280;19885;42.208;24.952;2023-07-13T07:33:08;99900.06;;;28.42;69.00
33554;BME280;19885;42.208;24.952;2023-07-13T07:35:33;99892.16;;;28.53;70.28
33554;BME280;19885;42.208;24.952;2023-07-13T07:37:59;99895.06;;;28.77;65.96
33554;BME280;19885;42.208;24.952;2023-07-13T07:40:24;99894.13;;;28.90;66.55
33554;BME280;19885;42.208;24.952;2023-07-13T07:42:50;99895.31;;;28.86;67.51
33554;BME280;19885;42.208;24.952;2023-07-13T07:45:15;99890.63;;;29.15;64.72
33554;BME280;19885;42.208;24.952;2023-07-13T07:47:40;99892.69;;;29.24;65.64
33554;BME280;19885;42.208;24.952;2023-07-13T07:50:06;99888.41;;;29.34;65.13
33554;BME280;19885;42.208;24.952;2023-07-13T07:55:34;99890.22;;;29.59;62.73
33554;BME280;19885;42.208;24.952;2023-07-13T07:58:02;99884.66;;;29.62;63.18
33554;BME280;19885;42.208;24.952;2023-07-13T08:00:27;99896.03;;;29.78;61.75
33554;BME280;19885;42.208;24.952;2023-07-13T08:02:56;99892.06;;;29.84;63.80
33554;BME280;19885;42.208;24.952;2023-07-13T08:05:22;99885.47;;;29.88;60.04
33554;BME280;19885;42.208;24.952;2023-07-13T08:07:47;99882.56;;;29.91;60.75
33554;BME280;19885;42.208;24.952;2023-07-13T08:10:12;99885.66;;;30.10;61.49
33554;BME280;19885;42.208;24.952;2023-07-13T08:12:38;99881.56;;;30.04;59.87
33554;BME280;19885;42.208;24.952;2023-07-13T08:15:04;99880.09;;;30.00;59.09
33554;BME280;19885;42.208;24.952;2023-07-13T08:17:30;99878.50;;;30.34;59.76
33554;BME280;19885;42.208;24.952;2023-07-13T08:19:56;99870.19;;;30.37;57.48
33554;BME280;19885;42.208;24.952;2023-07-13T08:22:21;99868.75;;;30.44;57.02
33554;BME280;19885;42.208;24.952;2023-07-13T08:24:46;99870.75;;;30.53;59.34
33554;BME280;19885;42.208;24.952;2023-07-13T08:27:20;99870.16;;;30.84;55.34
33554;BME280;19885;42.208;24.952;2023-07-13T08:29:45;99872.16;;;30.93;56.71
33554;BME280;19885;42.208;24.952;2023-07-13T08:32:12;99863.75;;;30.98;60.05
33554;BME280;19885;42.208;24.952;2023-07-13T08:34:38;99835.34;;;30.94;60.96
33554;BME280;19885;42.208;24.952;2023-07-13T08:37:07;99865.38;;;31.34;58.45
33554;BME280;19885;42.208;24.952;2023-07-13T08:39:34;99872.06;;;31.52;60.46
33554;BME280;19885;42.208;24.952;2023-07-13T08:42:01;99862.69;;;31.23;58.68
33554;BME280;19885;42.208;24.952;2023-07-13T08:44:46;99865.94;;;31.50;54.69
33554;BME280;19885;42.208;24.952;2023-07-13T08:47:15;99865.69;;;31.53;55.92
33554;BME280;19885;42.208;24.952;2023-07-13T08:49:41;99860.78;;;31.80;56.95
33554;BME280;19885;42.208;24.952;2023-07-13T08:52:15;99860.03;;;31.78;54.94
33554;BME280;19885;42.208;24.952;2023-07-13T08:54:43;99855.03;;;31.85;50.41
33554;BME280;19885;42.208;24.952;2023-07-13T08:57:13;99849.97;;;31.91;54.61
33554;BME280;19885;42.208;24.952;2023-07-13T08:59:39;99848.22;;;32.12;58.75
33554;BME280;19885;42.208;24.952;2023-07-13T09:04:41;99848.22;;;32.12;55.65
33554;BME280;19885;42.208;24.952;2023-07-13T09:15:02;99845.97;;;32.51;50.17
33554;BME280;19885;42.208;24.952;2023-07-13T09:17:33;99834.88;;;32.54;49.92
33554;BME280;19885;42.208;24.952;2023-07-13T09:20:04;99835.66;;;32.33;52.77
33554;BME280;19885;42.208;24.952;2023-07-13T09:22:35;99837.34;;;32.57;51.82
33554;BME280;19885;42.208;24.952;2023-07-13T09:25:23;99833.25;;;32.83;53.04
33554;BME280;19885;42.208;24.952;2023-07-13T09:27:50;99832.16;;;33.06;54.01
33554;BME280;19885;42.208;24.952;2023-07-13T09:30:25;99826.97;;;33.14;54.58
33554;BME280;19885;42.208;24.952;2023-07-13T09:32:53;99824.91;;;33.27;51.67
33554;BME280;19885;42.208;24.952;2023-07-13T09:35:21;99824.00;;;33.47;49.93
33554;BME280;19885;42.208;24.952;2023-07-13T09:37:47;99816.09;;;33.55;47.84
33554;BME280;19885;42.208;24.952;2023-07-13T09:40:28;99817.56;;;33.59;48.15
33554;BME280;19885;42.208;24.952;2023-07-13T09:42:55;99799.94;;;33.74;49.44
33554;BME280;19885;42.208;24.952;2023-07-13T09:45:29;99802.41;;;33.97;49.37
33554;BME280;19885;42.208;24.952;2023-07-13T09:48:05;99793.00;;;33.51;52.06
33554;BME280;19885;42.208;24.952;2023-07-13T09:50:31;99786.22;;;33.57;45.72
33554;BME280;19885;42.208;24.952;2023-07-13T09:52:56;99776.84;;;33.61;46.85
33554;BME280;19885;42.208;24.952;2023-07-13T09:57:55;99770.75;;;33.78;44.91
33554;BME280;19885;42.208;24.952;2023-07-13T10:00:22;99777.31;;;33.75;47.49
33554;BME280;19885;42.208;24.952;2023-07-13T10:02:52;99768.50;;;33.93;45.03
33554;BME280;19885;42.208;24.952;2023-07-13T10:05:22;99764.44;;;34.17;51.30
33554;BME280;19885;42.208;24.952;2023-07-13T10:07:49;99754.31;;;34.19;50.05
33554;BME280;19885;42.208;24.952;2023-07-13T10:10:16;99755.03;;;34.21;49.20
33554;BME280;19885;42.208;24.952;2023-07-13T10:12:42;99753.78;;;34.25;50.58
33554;BME280;19885;42.208;24.952;2023-07-13T10:15:13;99752.88;;;34.44;47.73
33554;BME280;19885;42.208;24.952;2023-07-13T10:17:39;99750.78;;;34.57;47.07
33554;BME280;19885;42.208;24.952;2023-07-13T10:20:05;99756.47;;;34.73;46.02
33554;BME280;19885;42.208;24.952;2023-07-13T10:25:20;99748.72;;;34.78;45.06
33554;BME280;19885;42.208;24.952;2023-07-13T10:27:47;99751.25;;;34.89;49.92
33554;BME280;19885;42.208;24.952;2023-07-13T10:30:17;99753.25;;;34.87;43.08
33554;BME280;19885;42.208;24.952;2023-07-13T10:32:44;99748.09;;;35.13;39.43
33554;BME280;19885;42.208;24.952;2023-07-13T10:35:12;99741.56;;;35.33;41.82
33554;BME280;19885;42.208;24.952;2023-07-13T10:37:44;99742.97;;;35.10;43.70
33554;BME280;19885;42.208;24.952;2023-07-13T10:40:17;99740.44;;;35.36;37.47
33554;BME280;19885;42.208;24.952;2023-07-13T10:42:44;99737.34;;;35.58;40.86
33554;BME280;19885;42.208;24.952;2023-07-13T10:45:13;99732.59;;;35.60;44.63
33554;BME280;19885;42.208;24.952;2023-07-13T10:47:39;99722.50;;;35.62;47.99
33554;BME280;19885;42.208;24.952;2023-07-13T10:50:05;99722.50;;;35.79;45.73
33554;BME280;19885;42.208;24.952;2023-07-13T10:52:41;99725.25;;;35.16;42.93
33554;BME280;19885;42.208;24.952;2023-07-13T10:55:29;99712.59;;;35.34;41.79
33554;BME280;19885;42.208;24.952;2023-07-13T10:57:53;99710.84;;;35.42;47.44
33554;BME280;19885;42.208;24.952;2023-07-13T11:00:18;99711.09;;;35.49;42.41
33554;BME280;19885;42.208;24.952;2023-07-13T11:02:43;99707.53;;;35.48;35.45
33554;BME280;19885;42.208;24.952;2023-07-13T11:07:53;99700.59;;;36.08;38.18
33554;BME280;19885;42.208;24.952;2023-07-13T11:13:03;99694.09;;;36.19;32.45
33554;BME280;19885;42.208;24.952;2023-07-13T11:15:44;99693.81;;;36.12;36.00
33554;BME280;19885;42.208;24.952;2023-07-13T11:18:19;99683.75;;;36.22;35.39
33554;BME280;19885;42.208;24.952;2023-07-13T11:20:45;99694.47;;;36.06;34.59
33554;BME280;19885;42.208;24.952;2023-07-13T11:25:41;99691.50;;;36.53;35.79
33554;BME280;19885;42.208;24.952;2023-07-13T11:30:35;99682.22;;;36.63;36.80
33554;BME280;19885;42.208;24.952;2023-07-13T11:35:36;99680.38;;;37.23;39.12
33554;BME280;19885;42.208;24.952;2023-07-13T11:38:03;99683.19;;;37.39;37.19
33554;BME280;19885;42.208;24.952;2023-07-13T11:40:37;99680.66;;;37.46;38.47
33554;BME280;19885;42.208;24.952;2023-07-13T11:43:04;99673.66;;;37.43;38.12
33554;BME280;19885;42.208;24.952;2023-07-13T11:45:31;99672.31;;;37.47;38.71
33554;BME280;19885;42.208;24.952;2023-07-13T11:47:57;99664.16;;;37.47;39.49
33554;BME280;19885;42.208;24.952;2023-07-13T11:50:25;99665.25;;;37.29;37.13
33554;BME280;19885;42.208;24.952;2023-07-13T11:52:51;99666.34;;;37.10;37.94
33554;BME280;19885;42.208;24.952;2023-07-13T11:55:18;99657.50;;;37.08;36.99
33554;BME280;19885;42.208;24.952;2023-07-13T11:57:54;99658.88;;;37.12;34.52
33554;BME280;19885;42.208;24.952;2023-07-13T12:00:22;99646.31;;;37.19;34.70
33554;BME280;19885;42.208;24.952;2023-07-13T12:02:51;99649.47;;;37.32;40.10
33554;BME280;19885;42.208;24.952;2023-07-13T12:05:18;99644.38;;;37.37;33.80
33554;BME280;19885;42.208;24.952;2023-07-13T12:07:44;99647.53;;;37.16;32.62
33554;BME280;19885;42.208;24.952;2023-07-13T12:12:34;99627.34;;;37.27;32.31
33554;BME280;19885;42.208;24.952;2023-07-13T12:15:00;99630.47;;;37.40;32.16
33554;BME280;19885;42.208;24.952;2023-07-13T12:17:25;99627.28;;;37.53;32.94
33554;BME280;19885;42.208;24.952;2023-07-13T12:19:51;99628.81;;;37.63;36.06
33554;BME280;19885;42.208;24.952;2023-07-13T12:22:18;99629.31;;;37.67;34.44
33554;BME280;19885;42.208;24.952;2023-07-13T12:24:44;99625.22;;;37.63;35.25
33554;BME280;19885;42.208;24.952;2023-07-13T12:27:16;99621.50;;;37.72;32.09
33554;BME280;19885;42.208;24.952;2023-07-13T12:29:49;99616.22;;;37.70;31.65
33554;BME280;19885;42.208;24.952;2023-07-13T12:32:16;99607.19;;;37.78;34.30
33554;BME280;19885;42.208;24.952;2023-07-13T12:34:55;99613.34;;;37.80;33.40
33554;BME280;19885;42.208;24.952;2023-07-13T12:37:21;99611.16;;;37.92;30.16
33554;BME280;19885;42.208;24.952;2023-07-13T12:39:47;99610.47;;;37.90;30.97
33554;BME280;19885;42.208;24.952;2023-07-13T12:42:17;99598.22;;;37.77;34.34
33554;BME280;19885;42.208;24.952;2023-07-13T12:44:44;99589.38;;;37.92;34.65
33554;BME280;19885;42.208;24.952;2023-07-13T12:47:11;99592.41;;;37.80;31.42
33554;BME280;19885;42.208;24.952;2023-07-13T12:49:41;99591.44;;;37.81;33.97
33554;BME280;19885;42.208;24.952;2023-07-13T12:52:12;99586.66;;;37.75;31.80
33554;BME280;19885;42.208;24.952;2023-07-13T12:54:40;99591.06;;;37.76;33.58
33554;BME280;19885;42.208;24.952;2023-07-13T12:57:05;99591.72;;;37.78;33.14
33554;BME280;19885;42.208;24.952;2023-07-13T12:59:34;99592.78;;;37.77;32.19
33554;BME280;19885;42.208;24.952;2023-07-13T13:02:02;99593.13;;;37.82;35.00
33554;BME280;19885;42.208;24.952;2023-07-13T13:04:38;99582.06;;;37.92;32.65
33554;BME280;19885;42.208;24.952;2023-07-13T13:07:10;99589.03;;;37.95;30.03
33554;BME280;19885;42.208;24.952;2023-07-13T13:09:54;99584.78;;;37.92;28.96
33554;BME280;19885;42.208;24.952;2023-07-13T13:12:19;99578.31;;;38.01;32.52
33554;BME280;19885;42.208;24.952;2023-07-13T13:14:45;99579.34;;;37.92;29.56
33554;BME280;19885;42.208;24.952;2023-07-13T13:17:24;99576.78;;;37.91;31.81
33554;BME280;19885;42.208;24.952;2023-07-13T13:19:52;99573.38;;;38.21;32.27
33554;BME280;19885;42.208;24.952;2023-07-13T13:22:19;99570.31;;;38.16;30.69
33554;BME280;19885;42.208;24.952;2023-07-13T13:24:45;99561.81;;;38.27;30.84
33554;BME280;19885;42.208;24.952;2023-07-13T13:27:16;99553.28;;;38.14;29.58
33554;BME280;19885;42.208;24.952;2023-07-13T13:29:43;99544.78;;;38.09;30.52
33554;BME280;19885;42.208;24.952;2023-07-13T13:32:13;99541.34;;;38.15;31.96
33554;BME280;19885;42.208;24.952;2023-07-13T13:34:39;99542.88;;;38.17;29.94
33554;BME280;19885;42.208;24.952;2023-07-13T13:37:09;99536.25;;;38.20;30.39
33554;BME280;19885;42.208;24.952;2023-07-13T13:39:40;99537.25;;;38.35;29.27
33554;BME280;19885;42.208;24.952;2023-07-13T13:42:08;99540.69;;;38.29;30.06
33554;BME280;19885;42.208;24.952;2023-07-13T13:44:34;99533.66;;;38.42;30.70
33554;BME280;19885;42.208;24.952;2023-07-13T13:47:00;99530.06;;;38.50;32.62
33554;BME280;19885;42.208;24.952;2023-07-13T13:49:27;99526.00;;;38.38;30.55
33554;BME280;19885;42.208;24.952;2023-07-13T13:51:53;99523.47;;;38.28;29.02
33554;BME280;19885;42.208;24.952;2023-07-13T13:54:19;99523.81;;;38.25;28.94
33554;BME280;19885;42.208;24.952;2023-07-13T13:56:46;99517.97;;;38.44;29.59
33554;BME280;19885;42.208;24.952;2023-07-13T13:59:12;99522.22;;;38.47;29.23
33554;BME280;19885;42.208;24.952;2023-07-13T14:01:38;99517.81;;;38.46;30.10
33554;BME280;19885;42.208;24.952;2023-07-13T14:04:04;99523.19;;;38.62;30.95
33554;BME280;19885;42.208;24.952;2023-07-13T14:06:30;99521.56;;;38.45;31.60
33554;BME280;19885;42.208;24.952;2023-07-13T14:08:56;99518.78;;;38.53;29.79
33554;BME280;19885;42.208;24.952;2023-07-13T14:11:21;99517.97;;;38.52;29.88
33554;BME280;19885;42.208;24.952;2023-07-13T14:13:54;99508.59;;;38.55;28.36
33554;BME280;19885;42.208;24.952;2023-07-13T14:16:21;99508.75;;;38.53;28.18
33554;BME280;19885;42.208;24.952;2023-07-13T14:18:47;99510.81;;;38.51;29.64
33554;BME280;19885;42.208;24.952;2023-07-13T14:23:38;99506.59;;;38.33;29.38
33554;BME280;19885;42.208;24.952;2023-07-13T14:26:08;99503.03;;;38.24;27.25
33554;BME280;19885;42.208;24.952;2023-07-13T14:28:43;99506.91;;;38.46;29.95
33554;BME280;19885;42.208;24.952;2023-07-13T14:31:13;99504.53;;;38.43;29.43
33554;BME280;19885;42.208;24.952;2023-07-13T14:33:39;99507.97;;;38.37;29.51
33554;BME280;19885;42.208;24.952;2023-07-13T14:38:48;99495.38;;;38.36;29.70
33554;BME280;19885;42.208;24.952;2023-07-13T14:41:13;99499.63;;;38.38;31.69
33554;BME280;19885;42.208;24.952;2023-07-13T14:43:39;99492.59;;;38.44;30.44
33554;BME280;19885;42.208;24.952;2023-07-13T14:46:04;99493.16;;;38.31;29.64
33554;BME280;19885;42.208;24.952;2023-07-13T14:48:30;99488.19;;;38.35;28.42
33554;BME280;19885;42.208;24.952;2023-07-13T14:50:56;99497.03;;;38.45;30.98
33554;BME280;19885;42.208;24.952;2023-07-13T15:03:43;99484.31;;;38.21;29.75
33554;BME280;19885;42.208;24.952;2023-07-13T15:06:12;99480.72;;;38.37;28.39
33554;BME280;19885;42.208;24.952;2023-07-13T15:08:38;99476.56;;;38.57;31.19